sensor_id;sensor_type;location;lat;lon;timestamp;pressure;altitude;pressure_sealevel;temperature;humidity
56632;BME280;42503;39.928;-75.152;2023-04-25T00:02:08;101712.53;;;23.23;34.85
56632;BME280;42503;39.928;-75.152;2023-04-25T00:12:09;101716.16;;;23.19;34.85
56632;BME280;42503;39.928;-75.152;2023-04-25T00:22:10;101731.78;;;23.15;35.19
56632;BME280;42503;39.928;-75.152;2023-04-25T00:32:12;101744.63;;;23.21;35.36
56632;BME280;42503;39.928;-75.152;2023-04-25T00:42:17;101757.75;;;23.20;35.02
56632;BME280;42503;39.928;-75.152;2023-04-25T00:52:19;101751.03;;;23.06;35.09
56632;BME280;42503;39.928;-75.152;2023-04-25T01:02:20;101781.75;;;23.21;35.28
56632;BME280;42503;39.928;-75.152;2023-04-25T01:12:23;101757.16;;;23.03;35.19
56632;BME280;42503;39.928;-75.152;2023-04-25T01:22:27;101802.72;;;23.19;35.37
56632;BME280;42503;39.928;-75.152;2023-04-25T01:32:30;101790.09;;;23.01;35.28
56632;BME280;42503;39.928;-75.152;2023-04-25T01:42:41;101806.28;;;23.09;35.39
56632;BME280;42503;39.928;-75.152;2023-04-25T01:52:43;101828.38;;;23.21;35.38
56632;BME280;42503;39.928;-75.152;2023-04-25T02:02:44;101831.47;;;23.19;35.40
56632;BME280;42503;39.928;-75.152;2023-04-25T02:12:45;101838.16;;;23.18;35.50
56632;BME280;42503;39.928;-75.152;2023-04-25T02:22:47;101811.31;;;23.02;35.35
56632;BME280;42503;39.928;-75.152;2023-04-25T02:32:48;101848.78;;;23.21;35.70
56632;BME280;42503;39.928;-75.152;2023-04-25T02:42:49;101848.78;;;23.21;35.31
56632;BME280;42503;39.928;-75.152;2023-04-25T02:52:51;101858.00;;;23.27;35.43
56632;BME280;42503;39.928;-75.152;2023-04-25T03:02:53;101833.69;;;23.17;35.25
56632;BME280;42503;39.928;-75.152;2023-04-25T03:12:54;101848.75;;;23.16;34.76
56632;BME280;42503;39.928;-75.152;2023-04-25T03:22:56;101883.41;;;23.25;34.79
56632;BME280;42503;39.928;-75.152;2023-04-25T03:32:57;101872.81;;;23.27;34.29
56632;BME280;42503;39.928;-75.152;2023-04-25T03:42:58;101880.63;;;23.30;34.42
56632;BME280;42503;39.928;-75.152;2023-04-25T03:53:00;101880.63;;;23.30;34.00
56632;BME280;42503;39.928;-75.152;2023-04-25T04:03:01;101895.19;;;23.38;34.86
56632;BME280;42503;39.928;-75.152;2023-04-25T04:13:05;101891.81;;;23.30;33.75
56632;BME280;42503;39.928;-75.152;2023-04-25T04:23:06;101918.38;;;23.43;33.95
56632;BME280;42503;39.928;-75.152;2023-04-25T04:33:11;101883.94;;;23.17;33.77
56632;BME280;42503;39.928;-75.152;2023-04-25T04:43:16;101897.38;;;23.20;33.66
56632;BME280;42503;39.928;-75.152;2023-04-25T04:53:18;101907.41;;;23.21;33.45
56632;BME280;42503;39.928;-75.152;2023-04-25T05:03:20;101937.09;;;23.38;33.63
56632;BME280;42503;39.928;-75.152;2023-04-25T05:13:21;101930.06;;;23.30;33.43
56632;BME280;42503;39.928;-75.152;2023-04-25T05:23:22;101924.78;;;23.28;33.57
56632;BME280;42503;39.928;-75.152;2023-04-25T05:33:24;101919.72;;;23.25;33.63
56632;BME280;42503;39.928;-75.152;2023-04-25T05:43:27;101932.03;;;23.29;33.51
56632;BME280;42503;39.928;-75.152;2023-04-25T05:53:29;101925.84;;;23.27;33.37
56632;BME280;42503;39.928;-75.152;2023-04-25T06:03:33;101886.19;;;23.15;33.85
56632;BME280;42503;39.928;-75.152;2023-04-25T06:13:34;101892.91;;;23.24;33.59
56632;BME280;42503;39.928;-75.152;2023-04-25T06:23:35;101889.53;;;23.22;33.64
56632;BME280;42503;39.928;-75.152;2023-04-25T06:33:37;101899.03;;;23.21;33.35
56632;BME280;42503;39.928;-75.152;2023-04-25T06:43:38;101906.03;;;23.19;33.61
56632;BME280;42503;39.928;-75.152;2023-04-25T06:53:40;101916.06;;;23.15;33.67
56632;BME280;42503;39.928;-75.152;2023-04-25T07:03:41;101911.31;;;23.15;33.40
56632;BME280;42503;39.928;-75.152;2023-04-25T07:13:43;101912.97;;;23.11;33.86
56632;BME280;42503;39.928;-75.152;2023-04-25T07:23:44;101917.97;;;23.09;33.81
56632;BME280;42503;39.928;-75.152;2023-04-25T07:33:45;101924.13;;;23.11;33.39
56632;BME280;42503;39.928;-75.152;2023-04-25T07:43:49;101929.72;;;23.11;33.65
56632;BME280;42503;39.928;-75.152;2023-04-25T07:53:53;101927.47;;;23.08;33.77
56632;BME280;42503;39.928;-75.152;2023-04-25T08:03:55;101935.28;;;23.06;33.56
56632;BME280;42503;39.928;-75.152;2023-04-25T08:13:56;101929.59;;;22.91;33.33
56632;BME280;42503;39.928;-75.152;2023-04-25T08:24:00;101929.53;;;22.86;33.49
56632;BME280;42503;39.928;-75.152;2023-04-25T08:34:07;101956.47;;;23.02;33.80
56632;BME280;42503;39.928;-75.152;2023-04-25T08:44:10;101962.06;;;23.02;33.69
56632;BME280;42503;39.928;-75.152;2023-04-25T08:54:13;101933.75;;;22.88;33.45
56632;BME280;42503;39.928;-75.152;2023-04-25T09:04:18;101924.75;;;22.76;33.95
56632;BME280;42503;39.928;-75.152;2023-04-25T09:14:22;101950.50;;;22.88;33.53
56632;BME280;42503;39.928;-75.152;2023-04-25T09:24:41;101969.25;;;22.93;33.79
56632;BME280;42503;39.928;-75.152;2023-04-25T09:34:47;101964.72;;;22.87;33.63
56632;BME280;42503;39.928;-75.152;2023-04-25T09:44:53;101993.19;;;22.89;33.55
56632;BME280;42503;39.928;-75.152;2023-04-25T09:54:58;101987.91;;;22.87;33.88
56632;BME280;42503;39.928;-75.152;2023-04-25T10:05:02;101940.53;;;22.55;33.71
56632;BME280;42503;39.928;-75.152;2023-04-25T10:15:04;102002.38;;;22.84;33.55
56632;BME280;42503;39.928;-75.152;2023-04-25T10:25:07;101921.56;;;22.20;33.80
56632;BME280;42503;39.928;-75.152;2023-04-25T10:35:23;102031.09;;;22.79;33.79
56632;BME280;42503;39.928;-75.152;2023-04-25T10:45:25;102026.34;;;22.80;33.54
56632;BME280;42503;39.928;-75.152;2023-04-25T10:55:27;102038.03;;;22.77;33.46
56632;BME280;42503;39.928;-75.152;2023-04-25T11:05:48;102053.09;;;22.76;33.38
56632;BME280;42503;39.928;-75.152;2023-04-25T11:15:53;102045.44;;;22.61;33.39
56632;BME280;42503;39.928;-75.152;2023-04-25T11:25:54;102071.13;;;22.63;35.22
56632;BME280;42503;39.928;-75.152;2023-04-25T11:35:56;102071.25;;;22.46;33.91
56632;BME280;42503;39.928;-75.152;2023-04-25T11:45:57;102085.88;;;22.58;35.05
56632;BME280;42503;39.928;-75.152;2023-04-25T11:55:59;102051.94;;;22.40;35.63
56632;BME280;42503;39.928;-75.152;2023-04-25T12:06:03;102091.69;;;22.52;35.65
56632;BME280;42503;39.928;-75.152;2023-04-25T12:16:11;102095.03;;;22.54;35.28
56632;BME280;42503;39.928;-75.152;2023-04-25T12:26:12;102075.88;;;22.36;35.24
56632;BME280;42503;39.928;-75.152;2023-04-25T12:36:14;102112.38;;;22.56;35.39
56632;BME280;42503;39.928;-75.152;2023-04-25T12:46:17;102112.88;;;22.53;35.37
56632;BME280;42503;39.928;-75.152;2023-04-25T12:56:19;102079.22;;;22.32;35.31
56632;BME280;42503;39.928;-75.152;2023-04-25T13:06:23;102095.81;;;22.49;35.23
56632;BME280;42503;39.928;-75.152;2023-04-25T13:16:25;102097.47;;;22.45;35.26
56632;BME280;42503;39.928;-75.152;2023-04-25T13:26:26;102090.19;;;22.44;35.18
56632;BME280;42503;39.928;-75.152;2023-04-25T13:36:28;102110.63;;;22.50;35.18
56632;BME280;42503;39.928;-75.152;2023-04-25T13:46:29;102124.00;;;22.48;35.61
56632;BME280;42503;39.928;-75.152;2023-04-25T13:56:33;102132.63;;;22.46;35.46
56632;BME280;42503;39.928;-75.152;2023-04-25T14:06:34;102127.88;;;22.47;35.83
56632;BME280;42503;39.928;-75.152;2023-04-25T14:16:36;102135.16;;;22.48;35.38
56632;BME280;42503;39.928;-75.152;2023-04-25T14:26:37;102140.72;;;22.48;35.48
56632;BME280;42503;39.928;-75.152;2023-04-25T14:36:39;102115.78;;;22.36;35.66
56632;BME280;42503;39.928;-75.152;2023-04-25T14:46:40;102137.88;;;22.43;35.32
56632;BME280;42503;39.928;-75.152;2023-04-25T14:56:42;102150.78;;;22.49;35.17
56632;BME280;42503;39.928;-75.152;2023-04-25T15:06:46;102157.47;;;22.48;35.37
56632;BME280;42503;39.928;-75.152;2023-04-25T15:16:47;102154.94;;;22.46;35.17
56632;BME280;42503;39.928;-75.152;2023-04-25T15:26:48;102145.47;;;22.47;34.99
56632;BME280;42503;39.928;-75.152;2023-04-25T15:36:50;102168.63;;;22.48;34.72
56632;BME280;42503;39.928;-75.152;2023-04-25T15:46:51;102176.41;;;22.46;34.93
56632;BME280;42503;39.928;-75.152;2023-04-25T15:56:53;102160.19;;;22.43;34.81
56632;BME280;42503;39.928;-75.152;2023-04-25T16:06:54;102164.16;;;22.47;34.61
56632;BME280;42503;39.928;-75.152;2023-04-25T16:16:55;102161.63;;;22.45;34.68
56632;BME280;42503;39.928;-75.152;2023-04-25T16:26:57;102149.59;;;22.45;34.45
56632;BME280;42503;39.928;-75.152;2023-04-25T16:37:01;102152.41;;;22.45;34.36
56632;BME280;42503;39.928;-75.152;2023-04-25T16:47:02;102131.13;;;22.39;34.41
56632;BME280;42503;39.928;-75.152;2023-04-25T16:57:05;102133.16;;;22.43;34.56
56632;BME280;42503;39.928;-75.152;2023-04-25T17:07:10;102125.63;;;22.44;34.52
56632;BME280;42503;39.928;-75.152;2023-04-25T17:17:12;102123.94;;;22.43;34.49
56632;BME280;42503;39.928;-75.152;2023-04-25T17:27:13;102110.22;;;22.36;33.95
56632;BME280;42503;39.928;-75.152;2023-04-25T17:37:15;102087.34;;;22.39;34.36
56632;BME280;42503;39.928;-75.152;2023-04-25T17:47:17;102098.84;;;22.43;34.06
56632;BME280;42503;39.928;-75.152;2023-04-25T17:57:18;102093.25;;;22.43;34.23
56632;BME280;42503;39.928;-75.152;2023-04-25T18:07:22;102088.47;;;22.38;34.00
56632;BME280;42503;39.928;-75.152;2023-04-25T18:17:23;102097.16;;;22.42;33.77
56632;BME280;42503;39.928;-75.152;2023-04-25T18:27:25;102092.69;;;22.41;34.01
56632;BME280;42503;39.928;-75.152;2023-04-25T18:37:27;102089.91;;;22.41;33.91
56632;BME280;42503;39.928;-75.152;2023-04-25T18:47:31;102085.41;;;22.40;34.04
56632;BME280;42503;39.928;-75.152;2023-04-25T18:57:35;102078.16;;;22.39;34.18
56632;BME280;42503;39.928;-75.152;2023-04-25T19:07:36;102064.22;;;22.39;32.75
56632;BME280;42503;39.928;-75.152;2023-04-25T19:17:38;102051.84;;;22.29;33.32
56632;BME280;42503;39.928;-75.152;2023-04-25T19:27:39;102041.75;;;22.23;34.21
56632;BME280;42503;39.928;-75.152;2023-04-25T19:37:40;102062.81;;;22.36;34.33
56632;BME280;42503;39.928;-75.152;2023-04-25T19:47:46;102063.38;;;22.38;34.81
56632;BME280;42503;39.928;-75.152;2023-04-25T19:57:48;102018.03;;;22.21;34.79
56632;BME280;42503;39.928;-75.152;2023-04-25T20:07:49;102057.28;;;22.41;34.59
56632;BME280;42503;39.928;-75.152;2023-04-25T20:17:50;102021.69;;;22.26;34.47
56632;BME280;42503;39.928;-75.152;2023-04-25T20:27:52;102035.16;;;22.35;34.29
56632;BME280;42503;39.928;-75.152;2023-04-25T20:37:56;102059.28;;;22.46;34.64
56632;BME280;42503;39.928;-75.152;2023-04-25T20:47:58;102055.31;;;22.42;34.29
56632;BME280;42503;39.928;-75.152;2023-04-25T20:57:59;102051.75;;;22.46;34.41
56632;BME280;42503;39.928;-75.152;2023-04-25T21:08:04;102052.22;;;22.38;34.67
56632;BME280;42503;39.928;-75.152;2023-04-25T21:18:05;102069.88;;;22.49;34.24
56632;BME280;42503;39.928;-75.152;2023-04-25T21:28:10;102065.41;;;22.48;34.27
56632;BME280;42503;39.928;-75.152;2023-04-25T21:38:12;102039.03;;;22.28;34.20
56632;BME280;42503;39.928;-75.152;2023-04-25T21:48:14;102057.28;;;22.41;34.53
56632;BME280;42503;39.928;-75.152;2023-04-25T21:58:16;102074.28;;;22.45;34.43
56632;BME280;42503;39.928;-75.152;2023-04-25T22:08:17;102078.53;;;22.47;34.24
56632;BME280;42503;39.928;-75.152;2023-04-25T22:18:18;102051.34;;;22.32;34.49
56632;BME280;42503;39.928;-75.152;2023-04-25T22:28:20;102080.53;;;22.52;34.16
56632;BME280;42503;39.928;-75.152;2023-04-25T22:38:21;102077.69;;;22.47;34.28
56632;BME280;42503;39.928;-75.152;2023-04-25T22:48:23;102073.78;;;22.48;33.60
56632;BME280;42503;39.928;-75.152;2023-04-25T22:58:24;102063.66;;;22.37;33.64
56632;BME280;42503;39.928;-75.152;2023-04-25T23:08:29;102084.63;;;22.44;31.89
56632;BME280;42503;39.928;-75.152;2023-04-25T23:18:31;102091.59;;;22.42;32.94
56632;BME280;42503;39.928;-75.152;2023-04-25T23:28:32;102089.03;;;22.40;33.21
56632;BME280;42503;39.928;-75.152;2023-04-25T23:38:34;102088.75;;;22.37;33.31
56632;BME280;42503;39.928;-75.152;2023-04-25T23:48:38;102087.59;;;22.32;32.63
56632;BME280;42503;39.928;-75.152;2023-04-25T23:58:39;102076.25;;;22.17;31.36
